createdAt,value
2019-01-13T00:00:30.967Z,9.83
2019-01-13T00:01:30.919Z,9.81
2019-01-13T00:02:30.831Z,9.75
2019-01-13T00:03:30.757Z,9.78
2019-01-13T00:04:30.691Z,9.86
2019-01-13T00:05:30.633Z,9.75
2019-01-13T00:06:30.540Z,9.74
2019-01-13T00:07:30.448Z,9.75
2019-01-13T00:08:30.387Z,9.84
2019-01-13T00:09:30.311Z,9.89
2019-01-13T00:10:30.224Z,9.87
2019-01-13T00:11:30.225Z,9.86
2019-01-13T00:12:35.527Z,9.91
2019-01-13T00:13:30.016Z,9.89
2019-01-13T00:14:29.935Z,9.71
2019-01-13T00:15:29.857Z,9.75
2019-01-13T00:16:29.777Z,9.74
2019-01-13T00:17:29.698Z,9.83
2019-01-13T00:18:29.648Z,9.84
2019-01-13T00:19:29.560Z,9.86
2019-01-13T00:20:29.490Z,9.79
2019-01-13T00:21:29.423Z,9.76
2019-01-13T00:22:29.320Z,9.76
2019-01-13T00:23:29.256Z,9.84
2019-01-13T00:24:29.174Z,9.72
2019-01-13T00:25:29.120Z,9.86
2019-01-13T00:26:29.049Z,9.75
2019-01-13T00:27:28.968Z,9.69
2019-01-13T00:28:28.893Z,9.66
2019-01-13T00:29:28.809Z,9.58
2019-01-13T00:30:28.724Z,9.56
2019-01-13T00:31:28.656Z,9.66
2019-01-13T00:32:28.584Z,9.56
2019-01-13T00:33:28.513Z,9.58
2019-01-13T00:34:28.428Z,9.57
2019-01-13T00:35:28.362Z,9.60
2019-01-13T00:36:28.280Z,9.65
2019-01-13T00:37:28.198Z,9.69
2019-01-13T00:38:28.141Z,9.66
2019-01-13T00:39:28.067Z,9.69
2019-01-13T00:40:27.988Z,9.74
2019-01-13T00:41:27.914Z,9.69
2019-01-13T00:42:27.826Z,9.68
2019-01-13T00:43:27.770Z,9.69
2019-01-13T00:44:27.678Z,9.71
2019-01-13T00:45:27.621Z,9.79
2019-01-13T00:46:27.540Z,9.86
2019-01-13T00:47:27.466Z,9.83
2019-01-13T00:48:27.391Z,9.90
2019-01-13T00:49:27.300Z,9.81
2019-01-13T00:50:27.238Z,9.84
2019-01-13T00:51:27.171Z,9.78
2019-01-13T00:52:27.092Z,9.79
2019-01-13T00:53:27.018Z,9.74
2019-01-13T00:54:26.947Z,9.71
2019-01-13T00:55:26.854Z,9.60
2019-01-13T00:56:26.784Z,9.66
2019-01-13T00:57:26.721Z,9.60
2019-01-13T00:58:26.639Z,9.60
2019-01-13T00:59:26.565Z,9.69
2019-01-13T01:00:27.019Z,9.68
2019-01-13T01:01:26.411Z,9.69
2019-01-13T01:02:26.338Z,9.72
2019-01-13T01:03:26.256Z,9.76
2019-01-13T01:04:26.191Z,9.81
2019-01-13T01:05:26.117Z,9.84
2019-01-13T01:06:26.049Z,9.79
2019-01-13T01:07:25.960Z,9.76
2019-01-13T01:08:25.888Z,9.78
2019-01-13T01:09:25.825Z,9.76
2019-01-13T01:10:25.747Z,9.68
2019-01-13T01:11:25.673Z,9.75
2019-01-13T01:12:25.599Z,9.83
2019-01-13T01:13:25.506Z,9.72
2019-01-13T01:14:25.443Z,9.69
2019-01-13T01:15:25.371Z,9.60
2019-01-13T01:16:25.291Z,9.46
2019-01-13T01:17:25.222Z,9.50
2019-01-13T01:18:25.131Z,9.50
2019-01-13T01:19:25.073Z,9.51
2019-01-13T01:20:24.996Z,9.48
2019-01-13T01:21:24.927Z,9.39
2019-01-13T01:22:24.838Z,9.46
2019-01-13T01:23:24.760Z,9.39
2019-01-13T01:24:24.682Z,9.43
2019-01-13T01:25:24.622Z,9.51
2019-01-13T01:26:24.551Z,9.54
2019-01-13T01:27:24.469Z,9.58
2019-01-13T01:28:24.390Z,9.58
2019-01-13T01:29:24.322Z,9.47
2019-01-13T01:30:24.238Z,9.51
2019-01-13T01:31:24.177Z,9.48
2019-01-13T01:32:24.086Z,9.60
2019-01-13T01:33:26.116Z,9.46
2019-01-13T01:34:23.945Z,9.40
2019-01-13T01:35:23.875Z,9.39
2019-01-13T01:36:23.829Z,9.50
2019-01-13T01:37:23.712Z,9.42
2019-01-13T01:38:23.657Z,9.43
2019-01-13T01:39:23.573Z,9.42
2019-01-13T01:40:23.507Z,9.33
2019-01-13T01:41:23.422Z,9.33
2019-01-13T01:42:23.386Z,9.40
2019-01-13T01:43:23.266Z,9.47
2019-01-13T01:44:23.199Z,9.38
2019-01-13T01:45:23.121Z,9.47
2019-01-13T01:46:23.038Z,9.42
2019-01-13T01:47:22.974Z,9.47
2019-01-13T01:48:22.890Z,9.54
2019-01-13T01:49:22.812Z,9.60
2019-01-13T01:50:22.761Z,9.40
2019-01-13T01:51:22.670Z,9.39
2019-01-13T01:52:22.608Z,9.47
2019-01-13T01:53:22.519Z,9.47
2019-01-13T01:54:22.446Z,9.53
2019-01-13T01:55:22.377Z,9.60
2019-01-13T01:56:22.308Z,9.60
2019-01-13T01:57:22.254Z,9.66
2019-01-13T01:58:22.144Z,9.61
2019-01-13T01:59:22.064Z,9.58
2019-01-13T02:00:22.000Z,9.58
2019-01-13T02:01:21.916Z,9.57
2019-01-13T02:02:21.851Z,9.68
2019-01-13T02:03:21.780Z,9.68
2019-01-13T02:04:21.704Z,9.53
2019-01-13T02:05:21.627Z,9.66
2019-01-13T02:06:21.600Z,9.47
2019-01-13T02:07:21.470Z,9.48
2019-01-13T02:08:21.471Z,9.48
2019-01-13T02:09:21.327Z,9.51
2019-01-13T02:10:21.248Z,9.48
2019-01-13T02:11:21.170Z,9.54
2019-01-13T02:12:21.153Z,9.54
2019-01-13T02:13:21.016Z,9.50
2019-01-13T02:14:20.952Z,9.53
2019-01-13T02:15:20.887Z,9.47
2019-01-13T02:16:20.798Z,9.46
2019-01-13T02:17:20.766Z,9.47
2019-01-13T02:18:20.666Z,9.47
2019-01-13T02:19:20.583Z,9.58
2019-01-13T02:20:20.505Z,9.43
2019-01-13T02:21:20.432Z,9.53
2019-01-13T02:22:20.365Z,9.36
2019-01-13T02:23:20.275Z,9.50
2019-01-13T02:24:20.205Z,9.56
2019-01-13T02:25:20.133Z,9.47
2019-01-13T02:26:20.048Z,9.61
2019-01-13T02:27:19.975Z,9.53
2019-01-13T02:28:19.900Z,9.50
2019-01-13T02:29:19.818Z,9.46
2019-01-13T02:30:19.759Z,9.50
2019-01-13T02:31:19.690Z,9.47
2019-01-13T02:32:19.613Z,9.46
2019-01-13T02:33:19.533Z,9.50
2019-01-13T02:34:19.448Z,9.60
2019-01-13T02:35:19.381Z,9.60
2019-01-13T02:36:19.318Z,9.64
2019-01-13T02:37:19.250Z,9.66
2019-01-13T02:38:19.158Z,9.71
2019-01-13T02:39:19.086Z,9.74
2019-01-13T02:40:19.005Z,9.68
2019-01-13T02:41:18.930Z,9.71
2019-01-13T02:42:18.864Z,9.71
2019-01-13T02:43:18.794Z,9.72
2019-01-13T02:44:18.707Z,9.71
2019-01-13T02:45:18.638Z,9.72
2019-01-13T02:46:18.580Z,9.72
2019-01-13T02:47:18.485Z,9.72
2019-01-13T02:48:18.408Z,9.69
2019-01-13T02:49:18.345Z,9.75
2019-01-13T02:50:18.277Z,9.75
2019-01-13T02:51:18.196Z,9.69
2019-01-13T02:52:18.113Z,9.69
2019-01-13T02:53:18.047Z,9.58
2019-01-13T02:54:17.952Z,9.58
2019-01-13T02:55:17.875Z,9.72
2019-01-13T02:56:17.822Z,9.66
2019-01-13T02:57:17.747Z,9.56
2019-01-13T02:58:17.679Z,9.60
2019-01-13T02:59:17.635Z,9.72
2019-01-13T03:00:17.509Z,9.76
2019-01-13T03:01:17.432Z,9.86
2019-01-13T03:02:17.376Z,9.94
2019-01-13T03:03:17.292Z,9.87
2019-01-13T03:04:17.222Z,9.86
2019-01-13T03:05:17.151Z,9.91
2019-01-13T03:06:17.070Z,10.01
2019-01-13T03:07:16.991Z,9.90
2019-01-13T03:08:16.914Z,9.87
2019-01-13T03:09:16.852Z,9.89
2019-01-13T03:10:16.795Z,9.87
2019-01-13T03:11:16.698Z,9.89
2019-01-13T03:12:16.651Z,9.72
2019-01-13T03:13:16.571Z,9.60
2019-01-13T03:14:16.473Z,9.64
2019-01-13T03:15:19.498Z,9.65
2019-01-13T03:16:16.325Z,9.69
2019-01-13T03:17:16.257Z,9.71
2019-01-13T03:18:16.168Z,9.64
2019-01-13T03:19:16.091Z,9.66
2019-01-13T03:20:16.026Z,9.60
2019-01-13T03:21:15.954Z,9.60
2019-01-13T03:22:15.870Z,9.51
2019-01-13T03:23:15.793Z,9.54
2019-01-13T03:24:15.724Z,9.56
2019-01-13T03:25:15.652Z,9.56
2019-01-13T03:26:15.578Z,9.54
2019-01-13T03:27:15.504Z,9.58
2019-01-13T03:28:15.434Z,9.64
2019-01-13T03:29:15.361Z,9.56
2019-01-13T03:30:15.283Z,9.68
2019-01-13T03:31:15.217Z,9.57
2019-01-13T03:32:15.229Z,9.64
2019-01-13T03:33:15.084Z,9.58
2019-01-13T03:34:14.996Z,9.56
2019-01-13T03:35:14.919Z,9.64
2019-01-13T03:36:14.826Z,9.65
2019-01-13T03:37:14.827Z,9.60
2019-01-13T03:38:14.681Z,9.58
2019-01-13T03:39:14.610Z,9.60
2019-01-13T03:40:14.536Z,9.57
2019-01-13T03:41:14.456Z,9.57
2019-01-13T03:42:14.395Z,9.64
2019-01-13T03:43:14.327Z,9.71
2019-01-13T03:44:14.238Z,9.72
2019-01-13T03:45:14.165Z,9.68
2019-01-13T03:46:14.077Z,9.68
2019-01-13T03:47:14.001Z,9.71
2019-01-13T03:48:13.925Z,9.72
2019-01-13T03:49:13.857Z,9.76
2019-01-13T03:50:13.810Z,9.75
2019-01-13T03:51:13.721Z,9.84
2019-01-13T03:52:13.647Z,9.86
2019-01-13T03:53:13.580Z,9.78
2019-01-13T03:54:13.477Z,9.78
2019-01-13T03:55:13.426Z,9.75
2019-01-13T03:56:13.352Z,9.78
2019-01-13T03:57:13.252Z,9.78
2019-01-13T03:58:13.192Z,9.83
2019-01-13T03:59:13.118Z,9.89
2019-01-13T04:00:13.039Z,9.87
2019-01-13T04:01:18.489Z,9.89
2019-01-13T04:02:12.901Z,9.90
2019-01-13T04:03:12.823Z,9.86
2019-01-13T04:04:12.743Z,9.86
2019-01-13T04:05:12.675Z,9.87
2019-01-13T04:06:12.592Z,9.89
2019-01-13T04:07:12.511Z,9.87
2019-01-13T04:08:12.452Z,9.83
2019-01-13T04:09:12.374Z,9.81
2019-01-13T04:10:12.297Z,9.87
2019-01-13T04:11:12.233Z,9.83
2019-01-13T04:12:12.147Z,9.87
2019-01-13T04:13:12.076Z,9.84
2019-01-13T04:14:11.987Z,10.01
2019-01-13T04:15:11.931Z,9.94
2019-01-13T04:16:11.849Z,9.91
2019-01-13T04:17:11.772Z,9.89
2019-01-13T04:18:11.693Z,9.74
2019-01-13T04:19:11.617Z,9.71
2019-01-13T04:20:11.542Z,9.72
2019-01-13T04:21:11.484Z,9.72
2019-01-13T04:22:11.407Z,9.66
2019-01-13T04:23:11.334Z,9.71
2019-01-13T04:24:11.237Z,9.69
2019-01-13T04:25:11.184Z,9.69
2019-01-13T04:26:11.107Z,9.74
2019-01-13T04:27:11.048Z,9.74
2019-01-13T04:28:10.957Z,9.72
2019-01-13T04:29:10.882Z,9.74
2019-01-13T04:30:10.811Z,9.71
2019-01-13T04:31:10.724Z,9.66
2019-01-13T04:32:10.653Z,9.72
2019-01-13T04:33:10.583Z,9.69
2019-01-13T04:34:10.500Z,9.68
2019-01-13T04:35:10.424Z,9.56
2019-01-13T04:36:10.364Z,9.54
2019-01-13T04:37:10.300Z,9.56
2019-01-13T04:38:10.226Z,9.57
2019-01-13T04:39:10.140Z,9.58
2019-01-13T04:40:10.061Z,9.69
2019-01-13T04:41:09.982Z,9.58
2019-01-13T04:42:09.901Z,9.60
2019-01-13T04:43:09.848Z,9.58
2019-01-13T04:44:09.800Z,9.57
2019-01-13T04:45:09.678Z,9.71
2019-01-13T04:46:09.615Z,9.69
2019-01-13T04:47:09.546Z,9.69
2019-01-13T04:48:09.454Z,9.58
2019-01-13T04:49:09.376Z,9.71
2019-01-13T04:50:09.317Z,9.68
2019-01-13T04:51:09.244Z,9.61
2019-01-13T04:52:09.167Z,9.60
2019-01-13T04:53:09.098Z,9.64
2019-01-13T04:54:09.010Z,9.75
2019-01-13T04:55:08.932Z,9.71
2019-01-13T04:56:08.903Z,9.74
2019-01-13T04:57:08.789Z,9.72
2019-01-13T04:58:08.725Z,9.71
2019-01-13T04:59:08.641Z,9.66
2019-01-13T05:00:08.568Z,9.61
2019-01-13T05:01:08.496Z,9.65
2019-01-13T05:02:08.406Z,9.58
2019-01-13T05:03:08.337Z,9.57
2019-01-13T05:04:08.270Z,9.64
2019-01-13T05:05:08.191Z,9.56
2019-01-13T05:06:08.104Z,9.51
2019-01-13T05:07:08.032Z,9.64
2019-01-13T05:08:07.978Z,9.61
2019-01-13T05:09:07.897Z,9.60
2019-01-13T05:10:07.816Z,9.53
2019-01-13T05:11:07.738Z,9.65
2019-01-13T05:12:07.667Z,9.60
2019-01-13T05:13:07.596Z,9.57
2019-01-13T05:14:07.527Z,9.57
2019-01-13T05:15:07.441Z,9.48
2019-01-13T05:16:07.373Z,9.51
2019-01-13T05:17:07.288Z,9.61
2019-01-13T05:18:07.222Z,9.61
2019-01-13T05:19:07.148Z,9.58
2019-01-13T05:20:07.077Z,9.61
2019-01-13T05:21:06.984Z,9.61
2019-01-13T05:22:06.926Z,9.58
2019-01-13T05:23:06.853Z,9.64
2019-01-13T05:24:06.773Z,9.66
2019-01-13T05:25:06.694Z,9.64
2019-01-13T05:26:06.610Z,9.64
2019-01-13T05:27:06.542Z,9.68
2019-01-13T05:28:06.469Z,9.75
2019-01-13T05:29:06.404Z,9.76
2019-01-13T05:30:06.313Z,9.78
2019-01-13T05:31:06.238Z,9.74
2019-01-13T05:32:06.158Z,9.68
2019-01-13T05:33:06.093Z,9.61
2019-01-13T05:34:06.025Z,9.53
2019-01-13T05:35:05.949Z,9.58
2019-01-13T05:36:05.859Z,9.64
2019-01-13T05:37:05.785Z,9.65
2019-01-13T05:38:05.723Z,9.51
2019-01-13T05:39:05.648Z,9.57
2019-01-13T05:40:05.574Z,9.61
2019-01-13T05:41:05.998Z,9.56
2019-01-13T05:42:05.418Z,9.65
2019-01-13T05:43:05.355Z,9.56
2019-01-13T05:44:05.268Z,9.60
2019-01-13T05:45:05.207Z,9.58
2019-01-13T05:46:05.125Z,9.69
2019-01-13T05:47:05.050Z,9.69
2019-01-13T05:48:04.976Z,9.68
2019-01-13T05:49:04.904Z,9.74
2019-01-13T05:50:04.817Z,9.69
2019-01-13T05:51:04.739Z,9.69
2019-01-13T05:52:04.679Z,9.69
2019-01-13T05:53:04.603Z,9.71
2019-01-13T05:54:04.520Z,9.58
2019-01-13T05:55:04.450Z,9.64
2019-01-13T05:56:04.366Z,9.75
2019-01-13T05:57:04.326Z,9.74
2019-01-13T05:58:04.229Z,9.66
2019-01-13T05:59:04.157Z,9.60
2019-01-13T06:00:04.070Z,9.51
2019-01-13T06:01:03.998Z,9.57
2019-01-13T06:02:03.933Z,9.56
2019-01-13T06:03:03.852Z,9.58
2019-01-13T06:04:03.784Z,9.53
2019-01-13T06:05:03.700Z,9.60
2019-01-13T06:06:03.637Z,9.61
2019-01-13T06:07:03.562Z,9.47
2019-01-13T06:08:03.478Z,9.47
2019-01-13T06:09:03.405Z,9.58
2019-01-13T06:10:03.347Z,9.61
2019-01-13T06:11:03.245Z,9.57
2019-01-13T06:12:03.173Z,9.53
2019-01-13T06:13:03.094Z,9.58
2019-01-13T06:14:03.035Z,9.61
2019-01-13T06:15:02.955Z,9.58
2019-01-13T06:16:02.881Z,9.58
2019-01-13T06:17:02.812Z,9.48
2019-01-13T06:18:02.747Z,9.48
2019-01-13T06:19:02.648Z,9.48
2019-01-13T06:20:02.572Z,9.54
2019-01-13T06:21:02.502Z,9.54
2019-01-13T06:22:02.433Z,9.60
2019-01-13T06:23:02.360Z,9.64
2019-01-13T06:24:02.287Z,9.54
2019-01-13T06:25:02.202Z,9.57
2019-01-13T06:26:02.165Z,9.58
2019-01-13T06:27:02.056Z,9.66
2019-01-13T06:28:01.983Z,9.68
2019-01-13T06:29:01.905Z,9.69
2019-01-13T06:30:01.822Z,9.76
2019-01-13T06:31:01.748Z,9.74
2019-01-13T06:32:01.683Z,9.69
2019-01-13T06:33:01.606Z,9.72
2019-01-13T06:34:01.529Z,9.75
2019-01-13T06:35:01.458Z,9.79
2019-01-13T06:36:01.370Z,9.76
2019-01-13T06:37:01.315Z,9.75
2019-01-13T06:38:01.236Z,9.86
2019-01-13T06:39:01.156Z,9.86
2019-01-13T06:40:01.091Z,9.89
2019-01-13T06:41:01.006Z,9.84
2019-01-13T06:42:00.937Z,9.89
2019-01-13T06:43:00.859Z,9.89
2019-01-13T06:44:00.783Z,9.99
2019-01-13T06:45:00.716Z,9.94
2019-01-13T06:46:00.628Z,9.97
2019-01-13T06:47:00.565Z,9.84
2019-01-13T06:48:00.512Z,9.83
2019-01-13T06:49:00.421Z,9.79
2019-01-13T06:50:00.341Z,9.84
2019-01-13T06:51:00.265Z,9.84
2019-01-13T06:52:00.183Z,9.87
2019-01-13T06:53:00.117Z,9.76
2019-01-13T06:54:00.045Z,9.76
2019-01-13T06:54:59.953Z,9.72
2019-01-13T06:55:59.890Z,9.76
2019-01-13T06:56:59.817Z,9.75
2019-01-13T06:57:59.734Z,9.66
2019-01-13T06:58:59.660Z,9.69
2019-01-13T06:59:59.578Z,9.57
2019-01-13T07:00:59.508Z,9.68
2019-01-13T07:02:03.363Z,9.75
2019-01-13T07:02:59.373Z,9.71
2019-01-13T07:03:59.289Z,9.72
2019-01-13T07:04:59.214Z,9.68
2019-01-13T07:05:59.135Z,9.57
2019-01-13T07:06:59.062Z,9.57
2019-01-13T07:07:58.984Z,9.69
2019-01-13T07:08:58.907Z,9.66
2019-01-13T07:09:58.845Z,9.74
2019-01-13T07:10:58.771Z,9.74
2019-01-13T07:11:58.687Z,9.86
2019-01-13T07:12:58.628Z,9.75
2019-01-13T07:13:58.542Z,9.79
2019-01-13T07:14:58.472Z,9.81
2019-01-13T07:15:58.396Z,9.74
2019-01-13T07:16:58.321Z,9.84
2019-01-13T07:17:58.230Z,9.83
2019-01-13T07:18:58.160Z,9.86
2019-01-13T07:19:58.110Z,9.83
2019-01-13T07:20:58.008Z,9.79
2019-01-13T07:21:57.948Z,9.72
2019-01-13T07:22:57.874Z,9.69
2019-01-13T07:23:57.797Z,9.72
2019-01-13T07:24:57.724Z,9.74
2019-01-13T07:25:57.653Z,9.72
2019-01-13T07:26:57.565Z,9.74
2019-01-13T07:27:57.501Z,9.75
2019-01-13T07:28:57.425Z,9.84
2019-01-13T07:29:57.341Z,9.87
2019-01-13T07:30:57.264Z,9.90
2019-01-13T07:31:57.211Z,9.83
2019-01-13T07:32:57.136Z,9.86
2019-01-13T07:33:57.055Z,9.89
2019-01-13T07:34:56.974Z,9.86
2019-01-13T07:35:56.902Z,9.86
2019-01-13T07:36:56.854Z,9.87
2019-01-13T07:37:56.751Z,9.75
2019-01-13T07:38:56.705Z,9.83
2019-01-13T07:39:56.598Z,9.78
2019-01-13T07:40:56.531Z,9.75
2019-01-13T07:41:56.445Z,9.83
2019-01-13T07:42:56.386Z,9.86
2019-01-13T07:43:56.303Z,9.87
2019-01-13T07:44:56.225Z,9.84
2019-01-13T07:45:56.186Z,9.89
2019-01-13T07:46:56.068Z,9.87
2019-01-13T07:47:55.995Z,9.86
2019-01-13T07:48:55.917Z,9.75
2019-01-13T07:49:55.899Z,9.81
2019-01-13T07:50:55.777Z,9.90
2019-01-13T07:51:55.711Z,9.87
2019-01-13T07:52:55.632Z,9.86
2019-01-13T07:53:55.597Z,9.87
2019-01-13T07:54:55.484Z,9.90
2019-01-13T07:55:55.402Z,9.89
2019-01-13T07:56:55.329Z,9.90
2019-01-13T07:57:55.255Z,9.87
2019-01-13T07:58:55.183Z,9.87
2019-01-13T07:59:55.102Z,10.01
2019-01-13T08:00:55.042Z,9.97
2019-01-13T08:01:54.959Z,9.97
2019-01-13T08:02:54.885Z,9.97
2019-01-13T08:03:54.811Z,10.02
2019-01-13T08:04:54.722Z,9.97
2019-01-13T08:05:54.671Z,9.96
2019-01-13T08:06:54.576Z,10.02
2019-01-13T08:07:54.503Z,10.01
2019-01-13T08:08:54.437Z,9.99
2019-01-13T08:09:54.375Z,9.99
2019-01-13T08:10:54.288Z,10.11
2019-01-13T08:11:54.213Z,10.12
2019-01-13T08:12:54.133Z,10.12
2019-01-13T08:13:54.055Z,10.14
2019-01-13T08:14:53.995Z,10.05
2019-01-13T08:15:53.916Z,10.15
2019-01-13T08:16:53.834Z,10.08
2019-01-13T08:17:53.757Z,10.04
2019-01-13T08:18:53.683Z,10.12
2019-01-13T08:19:53.606Z,10.14
2019-01-13T08:20:53.553Z,10.12
2019-01-13T08:21:53.476Z,10.08
2019-01-13T08:22:53.403Z,10.11
2019-01-13T08:23:53.321Z,10.11
2019-01-13T08:24:53.241Z,10.15
2019-01-13T08:25:53.167Z,10.09
2019-01-13T08:26:53.095Z,10.17
2019-01-13T08:27:53.030Z,10.15
2019-01-13T08:28:52.958Z,10.11
2019-01-13T08:29:52.882Z,10.08
2019-01-13T08:30:52.794Z,9.99
2019-01-13T08:31:52.726Z,10.08
2019-01-13T08:32:52.668Z,10.04
2019-01-13T08:33:52.581Z,10.12
2019-01-13T08:34:52.511Z,10.23
2019-01-13T08:35:52.438Z,10.15
2019-01-13T08:36:52.351Z,10.23
2019-01-13T08:37:52.273Z,10.22
2019-01-13T08:38:52.209Z,10.36
2019-01-13T08:39:52.135Z,10.30
2019-01-13T08:40:52.049Z,10.41
2019-01-13T08:41:52.003Z,10.41
2019-01-13T08:42:51.913Z,10.41
2019-01-13T08:43:51.856Z,10.51
2019-01-13T08:44:51.770Z,10.53
2019-01-13T08:45:51.694Z,10.52
2019-01-13T08:46:51.665Z,10.59
2019-01-13T08:47:51.554Z,10.66
2019-01-13T08:48:51.479Z,10.70
2019-01-13T08:49:51.400Z,10.67
2019-01-13T08:50:51.345Z,10.66
2019-01-13T08:51:51.252Z,10.67
2019-01-13T08:52:51.167Z,10.55
2019-01-13T08:53:51.093Z,10.71
2019-01-13T08:54:51.031Z,10.67
2019-01-13T08:55:50.955Z,10.70
2019-01-13T08:56:50.918Z,10.78
2019-01-13T08:57:50.814Z,10.81
2019-01-13T08:58:50.737Z,10.71
2019-01-13T08:59:50.666Z,10.68
2019-01-13T09:00:50.598Z,10.70
2019-01-13T09:01:50.527Z,10.70
2019-01-13T09:02:50.449Z,10.73
2019-01-13T09:03:50.372Z,10.74
2019-01-13T09:04:50.288Z,10.71
2019-01-13T09:05:50.212Z,10.86
2019-01-13T09:06:50.157Z,10.91
2019-01-13T09:07:50.069Z,10.96
2019-01-13T09:08:50.009Z,10.96
2019-01-13T09:09:49.928Z,10.91
2019-01-13T09:10:49.858Z,10.92
2019-01-13T09:11:49.786Z,10.85
2019-01-13T09:12:56.359Z,11.02
2019-01-13T09:13:49.627Z,10.88
2019-01-13T09:14:49.555Z,10.92
2019-01-13T09:15:49.506Z,11.02
2019-01-13T09:16:49.419Z,11.06
2019-01-13T09:17:49.354Z,11.10
2019-01-13T09:18:49.261Z,11.11
2019-01-13T09:19:49.189Z,11.15
2019-01-13T09:20:49.127Z,11.19
2019-01-13T09:21:49.061Z,11.24
2019-01-13T09:22:48.982Z,11.35
2019-01-13T09:23:48.912Z,11.27
2019-01-13T09:24:48.829Z,11.15
2019-01-13T09:25:48.790Z,11.22
2019-01-13T09:26:51.012Z,11.24
2019-01-13T09:27:48.704Z,11.27
2019-01-13T09:28:48.553Z,11.29
2019-01-13T09:29:48.489Z,11.39
2019-01-13T09:30:48.407Z,11.44
2019-01-13T09:31:48.327Z,11.42
2019-01-13T09:32:48.251Z,11.43
2019-01-13T09:33:48.174Z,11.42
2019-01-13T09:34:48.118Z,11.52
2019-01-13T09:35:48.044Z,11.60
2019-01-13T09:36:47.974Z,11.62
2019-01-13T09:37:47.900Z,11.67
2019-01-13T09:38:47.819Z,11.78
2019-01-13T09:39:47.765Z,11.86
2019-01-13T09:40:47.682Z,11.85
2019-01-13T09:41:47.609Z,11.78
2019-01-13T09:42:47.531Z,11.78
2019-01-13T09:43:47.457Z,11.83
2019-01-13T09:44:47.476Z,11.94
2019-01-13T09:45:47.323Z,11.80
2019-01-13T09:46:47.251Z,12.10
2019-01-13T09:47:47.180Z,11.98
2019-01-13T09:48:47.097Z,11.86
2019-01-13T09:49:49.946Z,11.85
2019-01-13T09:50:46.964Z,12.04
2019-01-13T09:51:46.896Z,11.99
2019-01-13T09:52:46.810Z,11.79
2019-01-13T09:53:46.745Z,11.88
2019-01-13T09:54:46.667Z,11.85
2019-01-13T09:55:46.599Z,11.86
2019-01-13T09:56:46.534Z,11.88
2019-01-13T09:57:46.461Z,11.79
2019-01-13T09:58:46.390Z,11.99
2019-01-13T09:59:46.320Z,12.04
2019-01-13T10:00:46.239Z,12.07
2019-01-13T10:01:46.171Z,12.12
2019-01-13T10:02:46.797Z,12.14
2019-01-13T10:03:46.022Z,12.12
2019-01-13T10:04:45.961Z,12.19
2019-01-13T10:05:45.900Z,12.24
2019-01-13T10:06:45.810Z,12.21
2019-01-13T10:07:45.743Z,12.13
2019-01-13T10:08:45.675Z,12.19
2019-01-13T10:09:45.609Z,12.19
2019-01-13T10:10:45.539Z,12.34
2019-01-13T10:11:45.464Z,12.31
2019-01-13T10:12:45.381Z,12.34
2019-01-13T10:13:45.317Z,12.57
2019-01-13T10:14:45.254Z,12.42
2019-01-13T10:15:45.697Z,12.35
2019-01-13T10:16:45.119Z,12.35
2019-01-13T10:17:45.029Z,12.41
2019-01-13T10:18:44.965Z,12.52
2019-01-13T10:19:44.897Z,12.52
2019-01-13T10:20:44.827Z,12.47
2019-01-13T10:21:44.764Z,12.49
2019-01-13T10:22:44.681Z,12.39
2019-01-13T10:23:44.607Z,12.39
2019-01-13T10:24:44.538Z,12.41
2019-01-13T10:25:44.473Z,12.47
2019-01-13T10:26:44.401Z,12.52
2019-01-13T10:27:44.328Z,12.46
2019-01-13T10:28:44.247Z,12.35
2019-01-13T10:29:44.176Z,12.34
2019-01-13T10:30:44.103Z,12.28
2019-01-13T10:31:44.057Z,12.20
2019-01-13T10:32:43.976Z,12.28
2019-01-13T10:33:43.912Z,12.27
2019-01-13T10:34:43.833Z,12.34
2019-01-13T10:35:43.760Z,12.34
2019-01-13T10:36:43.677Z,12.52
2019-01-13T10:37:43.629Z,12.53
2019-01-13T10:38:43.563Z,12.39
2019-01-13T10:39:43.472Z,12.50
2019-01-13T10:40:43.391Z,12.49
2019-01-13T10:41:43.320Z,12.49
2019-01-13T10:42:43.255Z,12.47
2019-01-13T10:43:43.196Z,12.47
2019-01-13T10:44:43.122Z,12.41
2019-01-13T10:45:43.058Z,12.49
2019-01-13T10:46:42.967Z,12.47
2019-01-13T10:47:42.893Z,12.56
2019-01-13T10:48:42.831Z,12.57
2019-01-13T10:49:42.758Z,12.57
2019-01-13T10:50:42.690Z,12.52
2019-01-13T10:51:42.618Z,12.49
2019-01-13T10:52:42.551Z,12.56
2019-01-13T10:53:42.467Z,12.52
2019-01-13T10:54:42.412Z,12.57
2019-01-13T10:55:42.330Z,12.56
2019-01-13T10:56:42.266Z,12.52
2019-01-13T10:57:42.179Z,12.54
2019-01-13T10:58:42.110Z,12.59
2019-01-13T10:59:42.055Z,12.64
2019-01-13T11:00:41.992Z,12.59
2019-01-13T11:01:41.902Z,12.59
2019-01-13T11:02:41.838Z,12.53
2019-01-13T11:03:41.767Z,12.53
2019-01-13T11:04:41.680Z,12.64
2019-01-13T11:05:41.607Z,12.65
2019-01-13T11:06:41.534Z,12.71
2019-01-13T11:07:41.482Z,12.68
2019-01-13T11:08:41.402Z,12.71
2019-01-13T11:09:41.369Z,12.71
2019-01-13T11:10:41.266Z,12.74
2019-01-13T11:11:41.180Z,12.83
2019-01-13T11:12:41.119Z,12.86
2019-01-13T11:13:41.048Z,12.83
2019-01-13T11:14:40.975Z,12.87
2019-01-13T11:15:40.904Z,12.93
2019-01-13T11:16:40.845Z,12.93
2019-01-13T11:17:40.751Z,12.96
2019-01-13T11:18:40.683Z,12.89
2019-01-13T11:19:40.617Z,12.89
2019-01-13T11:20:40.555Z,12.87
2019-01-13T11:21:40.479Z,12.92
2019-01-13T11:22:40.409Z,13.01
2019-01-13T11:23:40.329Z,13.00
2019-01-13T11:24:40.256Z,13.05
2019-01-13T11:25:40.205Z,13.11
2019-01-13T11:26:40.122Z,13.07
2019-01-13T11:27:40.048Z,13.08
2019-01-13T11:28:39.965Z,13.07
2019-01-13T11:29:39.897Z,13.10
2019-01-13T11:30:39.829Z,13.08
2019-01-13T11:31:39.768Z,13.08
2019-01-13T11:32:39.690Z,13.07
2019-01-13T11:33:39.662Z,13.03
2019-01-13T11:34:39.551Z,13.05
2019-01-13T11:35:39.483Z,13.12
2019-01-13T11:36:39.397Z,13.08
2019-01-13T11:37:39.337Z,13.05
2019-01-13T11:38:39.254Z,13.11
2019-01-13T11:39:39.186Z,13.20
2019-01-13T11:40:39.125Z,13.12
2019-01-13T11:41:39.056Z,13.15
2019-01-13T11:42:38.986Z,13.08
2019-01-13T11:43:38.901Z,13.10
2019-01-13T11:44:38.844Z,13.07
2019-01-13T11:45:38.776Z,13.10
2019-01-13T11:46:38.703Z,13.08
2019-01-13T11:47:38.634Z,13.12
2019-01-13T11:48:38.563Z,13.11
2019-01-13T11:49:38.472Z,13.11
2019-01-13T11:50:38.413Z,13.20
2019-01-13T11:51:38.344Z,13.15
2019-01-13T11:52:38.278Z,13.10
2019-01-13T11:53:38.204Z,13.08
2019-01-13T11:54:38.117Z,13.08
2019-01-13T11:55:38.066Z,13.19
2019-01-13T11:56:37.984Z,13.15
2019-01-13T11:57:37.917Z,13.07
2019-01-13T11:58:37.833Z,13.11
2019-01-13T11:59:37.762Z,13.08
2019-01-13T12:00:37.701Z,13.10
2019-01-13T12:01:37.626Z,13.26
2019-01-13T12:02:37.565Z,13.19
2019-01-13T12:03:37.496Z,13.28
2019-01-13T12:04:37.412Z,13.11
2019-01-13T12:05:37.333Z,13.26
2019-01-13T12:06:37.265Z,13.28
2019-01-13T12:07:37.194Z,13.17
2019-01-13T12:08:37.139Z,13.29
2019-01-13T12:09:37.054Z,13.28
2019-01-13T12:10:36.996Z,13.25
2019-01-13T12:11:36.926Z,13.23
2019-01-13T12:12:36.858Z,13.23
2019-01-13T12:13:36.772Z,13.17
2019-01-13T12:14:36.706Z,13.15
2019-01-13T12:15:36.630Z,13.26
2019-01-13T12:16:37.735Z,13.19
2019-01-13T12:17:36.479Z,13.20
2019-01-13T12:18:40.482Z,13.26
2019-01-13T12:19:36.333Z,13.14
2019-01-13T12:20:36.303Z,13.23
2019-01-13T12:21:36.207Z,13.26
2019-01-13T12:22:36.133Z,13.12
2019-01-13T12:23:36.059Z,13.26
2019-01-13T12:24:35.987Z,13.20
2019-01-13T12:25:35.907Z,13.23
2019-01-13T12:26:35.853Z,13.29
2019-01-13T12:27:35.766Z,13.28
2019-01-13T12:28:35.708Z,13.32
2019-01-13T12:29:35.630Z,13.39
2019-01-13T12:30:35.570Z,13.26
2019-01-13T12:31:35.490Z,13.38
2019-01-13T12:32:35.422Z,13.33
2019-01-13T12:33:35.354Z,13.33
2019-01-13T12:34:35.278Z,13.41
2019-01-13T12:35:35.210Z,13.41
2019-01-13T12:36:35.126Z,13.41
2019-01-13T12:37:35.056Z,13.45
2019-01-13T12:38:35.012Z,13.32
2019-01-13T12:39:34.965Z,13.41
2019-01-13T12:40:34.851Z,13.36
2019-01-13T12:41:34.811Z,13.38
2019-01-13T12:42:34.711Z,13.45
2019-01-13T12:43:34.643Z,13.45
2019-01-13T12:44:34.571Z,13.51
2019-01-13T12:45:34.483Z,13.38
2019-01-13T12:46:34.427Z,13.36
2019-01-13T12:47:34.352Z,13.45
2019-01-13T12:48:34.275Z,13.42
2019-01-13T12:49:34.206Z,13.45
2019-01-13T12:50:34.129Z,13.39
2019-01-13T12:51:34.074Z,13.48
2019-01-13T12:52:34.000Z,13.45
2019-01-13T12:53:33.927Z,13.46
2019-01-13T12:54:33.861Z,13.66
2019-01-13T12:55:33.775Z,13.63
2019-01-13T12:56:33.713Z,13.67
2019-01-13T12:57:33.637Z,13.69
2019-01-13T12:58:33.592Z,13.71
2019-01-13T12:59:33.499Z,13.73
2019-01-13T13:00:33.422Z,13.70
2019-01-13T13:01:33.347Z,13.57
2019-01-13T13:02:33.288Z,13.69
2019-01-13T13:03:33.217Z,13.75
2019-01-13T13:04:33.156Z,13.71
2019-01-13T13:05:33.082Z,13.81
2019-01-13T13:06:33.007Z,13.78
2019-01-13T13:07:32.919Z,13.79